createdAt,value
2024-03-02T00:00:24.279Z,31.50
2024-03-02T00:05:26.360Z,35.80
2024-03-02T00:10:41.638Z,38.00
2024-03-02T00:16:06.920Z,39.70
2024-03-02T00:21:14.639Z,33.80
2024-03-02T00:26:17.384Z,35.50
2024-03-02T00:31:21.434Z,35.40
2024-03-02T00:36:28.146Z,28.80
2024-03-02T00:41:31.992Z,36.30
2024-03-02T00:46:38.510Z,35.10
2024-03-02T00:51:41.020Z,38.70
2024-03-02T00:56:44.136Z,35.30
2024-03-02T01:01:46.292Z,37.10
2024-03-02T01:06:49.322Z,37.50
2024-03-02T01:11:51.398Z,34.70
2024-03-02T01:16:53.890Z,26.30
2024-03-02T01:21:55.846Z,35.30
2024-03-02T01:26:58.061Z,37.30
2024-03-02T01:31:59.869Z,34.90
2024-03-02T01:37:01.774Z,34.50
2024-03-02T01:42:03.799Z,28.80
2024-03-02T01:47:05.886Z,32.30
2024-03-02T01:52:08.849Z,31.70
2024-03-02T01:57:11.187Z,44.20
2024-03-02T02:02:13.059Z,40.70
2024-03-02T02:07:15.873Z,38.00
2024-03-02T02:12:17.911Z,35.40
2024-03-02T02:17:20.648Z,32.70
2024-03-02T02:22:22.858Z,36.90
2024-03-02T02:27:24.860Z,39.70
2024-03-02T02:32:26.793Z,33.30
2024-03-02T02:37:28.597Z,37.80
2024-03-02T02:42:30.595Z,37.00
2024-03-02T02:47:35.091Z,42.00
2024-03-02T02:52:41.274Z,39.90
2024-03-02T02:57:45.287Z,35.10
2024-03-02T03:02:50.294Z,35.90
2024-03-02T03:08:02.792Z,36.80
2024-03-02T03:13:04.949Z,47.90
2024-03-02T03:18:09.021Z,42.50
2024-03-02T03:23:11.093Z,37.20
2024-03-02T03:28:12.891Z,28.00
2024-03-02T03:33:15.533Z,31.60
2024-03-02T03:38:17.579Z,41.70
2024-03-02T03:43:19.528Z,49.20
2024-03-02T03:48:21.561Z,33.90
2024-03-02T03:53:23.799Z,30.10
2024-03-02T03:58:25.790Z,32.80
2024-03-02T04:03:27.691Z,29.40
2024-03-02T04:08:29.580Z,42.60
2024-03-02T04:13:31.535Z,40.80
2024-03-02T04:18:33.814Z,32.20
2024-03-02T04:23:35.693Z,37.30
2024-03-02T04:28:37.608Z,37.80
2024-03-02T04:33:39.787Z,50.30
2024-03-02T04:38:41.695Z,50.90
2024-03-02T04:43:43.629Z,47.60
2024-03-02T04:48:46.041Z,48.90
2024-03-02T04:53:48.114Z,40.00
2024-03-02T04:58:50.317Z,56.10
2024-03-02T05:03:52.435Z,55.80
2024-03-02T05:08:54.659Z,42.20
2024-03-02T05:13:57.083Z,44.70
2024-03-02T05:18:59.072Z,46.60
2024-03-02T05:24:01.349Z,58.00
2024-03-02T05:29:04.344Z,46.90
2024-03-02T05:34:06.937Z,41.90
2024-03-02T05:39:10.646Z,69.90
2024-03-02T05:44:13.781Z,54.90
2024-03-02T05:49:15.745Z,34.70
2024-03-02T05:54:17.497Z,30.80
2024-03-02T05:59:19.497Z,33.70
2024-03-02T06:04:21.477Z,43.10
2024-03-02T06:09:25.849Z,31.60
2024-03-02T06:14:27.898Z,30.10
2024-03-02T06:19:29.982Z,27.80
2024-03-02T06:24:31.919Z,29.80
2024-03-02T06:29:35.024Z,37.90
2024-03-02T06:34:36.864Z,38.40
2024-03-02T06:39:38.857Z,36.00
2024-03-02T06:44:40.821Z,36.90
2024-03-02T06:49:50.994Z,28.60
2024-03-02T06:54:52.964Z,36.20
2024-03-02T06:59:59.997Z,38.00
2024-03-02T07:05:02.263Z,32.50
2024-03-02T07:10:06.077Z,35.90
2024-03-02T07:15:08.805Z,36.70
2024-03-02T07:20:13.796Z,42.60
2024-03-02T07:30:21.123Z,50.20
2024-03-02T07:35:27.986Z,40.40
2024-03-02T07:40:30.199Z,34.10
2024-03-02T07:45:32.828Z,38.80
2024-03-02T07:50:36.235Z,38.10
2024-03-02T07:55:38.156Z,33.50
2024-03-02T08:00:41.712Z,38.30
2024-03-02T08:10:45.956Z,42.40
2024-03-02T08:15:48.084Z,31.70
2024-03-02T08:20:50.121Z,33.70
2024-03-02T08:25:52.301Z,28.20
2024-03-02T08:30:54.524Z,31.90
2024-03-02T08:35:58.237Z,28.90
2024-03-02T08:46:02.319Z,32.00
2024-03-02T08:51:07.330Z,32.30
2024-03-02T08:56:09.388Z,39.50
2024-03-02T09:01:12.430Z,31.80
2024-03-02T09:06:15.155Z,33.30
2024-03-02T09:11:17.416Z,33.00
2024-03-02T09:16:19.316Z,35.30
2024-03-02T09:21:21.211Z,31.00
2024-03-02T09:26:23.730Z,31.60
2024-03-02T09:31:25.608Z,31.00
2024-03-02T09:36:27.494Z,34.10
2024-03-02T09:41:29.613Z,30.50
2024-03-02T09:46:31.697Z,29.10
2024-03-02T09:51:33.902Z,28.10
2024-03-02T09:56:35.830Z,28.00
2024-03-02T10:01:37.798Z,28.40
2024-03-02T10:06:39.661Z,30.60
2024-03-02T10:11:41.606Z,32.10
2024-03-02T10:16:44.976Z,32.90
2024-03-02T10:26:50.591Z,28.20
2024-03-02T10:31:54.034Z,28.90
2024-03-02T10:36:57.188Z,31.60
2024-03-02T10:42:00.100Z,27.60
2024-03-02T10:47:17.419Z,24.90
2024-03-02T10:52:24.593Z,25.80
2024-03-02T10:57:34.266Z,29.00
2024-03-02T11:02:40.345Z,28.20
2024-03-02T11:08:33.943Z,27.60
2024-03-02T11:13:38.672Z,29.20
2024-03-02T11:18:43.151Z,27.90
2024-03-02T11:23:45.511Z,26.20
2024-03-02T11:28:49.153Z,21.20
2024-03-02T11:33:51.252Z,19.60
2024-03-02T11:38:55.251Z,20.50
2024-03-02T11:43:57.435Z,22.10
2024-03-02T11:49:00.850Z,18.10
2024-03-02T11:54:04.163Z,17.20
2024-03-02T11:59:06.179Z,19.30
2024-03-02T12:04:08.554Z,17.20
2024-03-02T12:09:16.072Z,18.80
2024-03-02T12:14:18.340Z,17.30
2024-03-02T12:19:21.827Z,11.50
2024-03-02T12:24:25.993Z,12.50
2024-03-02T12:29:28.005Z,7.70
2024-03-02T12:34:30.127Z,9.30
2024-03-02T12:39:34.495Z,9.00
2024-03-02T12:44:36.688Z,8.40
2024-03-02T12:49:38.915Z,9.60
2024-03-02T12:54:41.022Z,8.20
2024-03-02T12:59:47.826Z,8.30
2024-03-02T13:04:55.998Z,7.70
2024-03-02T13:09:58.583Z,7.40
2024-03-02T13:15:00.586Z,8.50
2024-03-02T13:20:02.680Z,33.20
2024-03-02T13:25:05.788Z,15.30
2024-03-02T13:30:10.883Z,14.90
2024-03-02T13:35:13.012Z,12.10
2024-03-02T13:40:19.136Z,11.20
2024-03-02T13:45:21.062Z,13.40
2024-03-02T13:50:23.028Z,13.10
2024-03-02T13:55:25.320Z,15.30
2024-03-02T14:00:27.762Z,12.60
2024-03-02T14:05:29.796Z,15.90
2024-03-02T14:10:31.980Z,15.50
2024-03-02T14:15:41.536Z,14.20
2024-03-02T14:20:46.331Z,14.30
2024-03-02T14:25:49.378Z,13.80
2024-03-02T14:30:52.024Z,15.20
2024-03-02T14:35:54.079Z,17.00
2024-03-02T14:40:56.081Z,16.90
2024-03-02T14:45:58.838Z,18.20
2024-03-02T14:51:01.664Z,19.00
2024-03-02T14:56:07.646Z,18.40
2024-03-02T15:01:25.507Z,20.00
2024-03-02T15:06:45.915Z,17.00
2024-03-02T15:11:48.098Z,16.70
2024-03-02T15:16:50.814Z,17.80
2024-03-02T15:21:53.016Z,17.60
2024-03-02T15:26:55.573Z,21.30
2024-03-02T15:31:58.639Z,24.80
2024-03-02T15:37:01.623Z,23.50
2024-03-02T15:42:05.207Z,20.50
2024-03-02T15:47:09.034Z,21.10
2024-03-02T15:52:11.008Z,20.90
2024-03-02T15:57:13.906Z,17.30
2024-03-02T16:02:15.748Z,22.80
2024-03-02T16:07:17.713Z,27.10
2024-03-02T16:12:19.665Z,35.40
2024-03-02T16:17:21.653Z,35.50
2024-03-02T16:22:24.283Z,34.10
2024-03-02T16:27:26.243Z,31.70
2024-03-02T16:32:28.236Z,26.20
2024-03-02T16:37:30.494Z,34.90
2024-03-02T16:42:33.016Z,33.10
2024-03-02T16:47:34.956Z,33.70
2024-03-02T16:52:37.062Z,32.50
2024-03-02T16:57:39.065Z,35.90
2024-03-02T17:02:44.054Z,31.90
2024-03-02T17:07:45.825Z,38.30
2024-03-02T17:12:47.840Z,33.20
2024-03-02T17:17:49.872Z,36.50
2024-03-02T17:22:51.927Z,48.60
2024-03-02T17:28:29.514Z,44.80
2024-03-02T17:33:32.567Z,44.50
2024-03-02T17:38:34.549Z,43.40
2024-03-02T17:43:36.446Z,34.70
2024-03-02T17:48:38.521Z,34.90
2024-03-02T17:53:40.668Z,36.90
2024-03-02T17:58:42.553Z,40.10
2024-03-02T18:03:44.557Z,45.00
2024-03-02T18:08:46.516Z,50.50
2024-03-02T18:13:48.600Z,49.10
2024-03-02T18:18:50.933Z,60.50
2024-03-02T18:23:52.978Z,61.00
2024-03-02T18:28:54.880Z,49.60
2024-03-02T18:33:56.930Z,49.20
2024-03-02T18:38:59.436Z,38.90
2024-03-02T18:44:04.658Z,37.90
2024-03-02T18:49:07.133Z,51.70
2024-03-02T18:54:09.833Z,51.40
2024-03-02T18:59:11.688Z,51.30
2024-03-02T19:04:13.732Z,50.00
2024-03-02T19:09:16.483Z,43.10
2024-03-02T19:14:18.294Z,41.50
2024-03-02T19:19:20.246Z,56.60
2024-03-02T19:24:22.290Z,61.60
2024-03-02T19:29:29.721Z,63.10
2024-03-02T19:34:31.608Z,56.80
2024-03-02T19:39:37.437Z,51.80
2024-03-02T19:44:41.763Z,51.90
2024-03-02T19:49:43.673Z,60.10
2024-03-02T19:54:45.807Z,61.70
2024-03-02T19:59:47.773Z,55.20
2024-03-02T20:04:49.624Z,60.70
2024-03-02T20:09:52.019Z,53.70
2024-03-02T20:14:54.106Z,69.30
2024-03-02T20:19:56.409Z,86.10
2024-03-02T20:24:58.413Z,74.80
2024-03-02T20:30:17.549Z,60.60
2024-03-02T20:35:21.609Z,56.00
2024-03-02T20:40:23.697Z,64.90
2024-03-02T20:45:25.861Z,72.40
2024-03-02T20:50:27.934Z,65.90
2024-03-02T20:55:30.116Z,63.90
2024-03-02T21:00:32.331Z,63.50
2024-03-02T21:05:34.294Z,62.30
2024-03-02T21:10:36.374Z,51.40
2024-03-02T21:15:38.348Z,59.00
2024-03-02T21:20:40.373Z,66.40
2024-03-02T21:25:43.151Z,58.00
2024-03-02T21:30:45.355Z,57.50
2024-03-02T21:35:57.758Z,58.70
2024-03-02T21:40:59.669Z,63.40
2024-03-02T21:46:01.779Z,53.70
2024-03-02T21:51:04.137Z,51.00
2024-03-02T21:56:06.716Z,51.60
2024-03-02T22:01:08.764Z,62.00
2024-03-02T22:06:10.874Z,59.40
2024-03-02T22:11:14.630Z,57.30
2024-03-02T22:16:17.853Z,53.70
2024-03-02T22:21:19.999Z,52.00
2024-03-02T22:26:24.071Z,53.10
2024-03-02T22:31:26.108Z,59.80
2024-03-02T22:36:28.107Z,62.00
2024-03-02T22:41:30.419Z,57.50
2024-03-02T22:46:32.368Z,55.40
2024-03-02T22:51:34.404Z,53.20
2024-03-02T22:56:36.358Z,43.10
2024-03-02T23:01:40.852Z,41.90
2024-03-02T23:06:44.134Z,37.70
2024-03-02T23:11:46.198Z,50.70
2024-03-02T23:16:48.763Z,46.10
2024-03-02T23:21:51.212Z,40.00
2024-03-02T23:26:53.748Z,39.80
2024-03-02T23:31:55.689Z,32.40
2024-03-02T23:36:57.748Z,45.40
2024-03-02T23:41:59.697Z,43.70
2024-03-02T23:47:01.779Z,41.60
2024-03-02T23:52:03.784Z,39.50
2024-03-02T23:57:06.172Z,36.00
